createdAt,value
2019-01-04T00:01:35.784Z,68.96
2019-01-04T00:04:08.978Z,69.97
2019-01-04T00:06:39.589Z,69.66
2019-01-04T00:09:10.456Z,69.81
2019-01-04T00:11:41.174Z,70.05
2019-01-04T00:14:11.458Z,69.96
2019-01-04T00:16:42.444Z,70.28
2019-01-04T00:19:13.099Z,69.60
2019-01-04T00:21:43.432Z,69.52
2019-01-04T00:24:14.055Z,69.54
2019-01-04T00:26:44.660Z,69.51
2019-01-04T00:29:15.423Z,69.03
2019-01-04T00:31:46.034Z,69.32
2019-01-04T00:34:16.312Z,69.25
2019-01-04T00:36:47.179Z,69.66
2019-01-04T00:39:17.694Z,68.98
2019-01-04T00:41:48.456Z,69.81
2019-01-04T00:44:19.213Z,70.75
2019-01-04T00:46:50.217Z,71.03
2019-01-04T00:49:20.483Z,70.86
2019-01-04T00:51:51.098Z,70.79
2019-01-04T00:54:21.468Z,70.88
2019-01-04T00:57:22.956Z,70.97
2019-01-04T01:00:30.105Z,70.85
2019-01-04T01:03:44.403Z,71.03
2019-01-04T01:06:47.273Z,70.90
2019-01-04T01:10:06.807Z,70.64
2019-01-04T01:13:17.424Z,71.04
2019-01-04T01:16:27.566Z,70.28
2019-01-04T01:19:34.324Z,70.44
2019-01-04T01:22:44.341Z,69.36
2019-01-04T01:26:00.332Z,69.89
2019-01-04T01:29:16.960Z,69.34
2019-01-04T01:32:22.768Z,68.01
2019-01-04T01:35:39.782Z,68.46
2019-01-04T01:39:09.151Z,68.33
2019-01-04T01:42:18.178Z,68.59
2019-01-04T01:45:31.649Z,67.42
2019-01-04T01:48:36.068Z,67.97
2019-01-04T01:51:31.648Z,67.32
2019-01-04T01:54:01.925Z,66.88
2019-01-04T01:56:32.523Z,66.61
2019-01-04T01:59:03.306Z,66.72
2019-01-04T02:01:33.654Z,66.71
2019-01-04T02:04:04.465Z,66.80
2019-01-04T02:06:35.175Z,67.25
2019-01-04T02:09:08.766Z,66.51
2019-01-04T02:11:39.300Z,66.25
2019-01-04T02:14:09.804Z,66.80
2019-01-04T02:16:40.763Z,66.68
2019-01-04T02:19:11.410Z,65.90
2019-01-04T02:21:41.668Z,66.61
2019-01-04T02:24:12.281Z,66.66
2019-01-04T02:26:43.101Z,66.75
2019-01-04T02:29:13.747Z,67.21
2019-01-04T02:31:44.147Z,67.76
2019-01-04T02:34:15.075Z,68.59
2019-01-04T02:36:45.362Z,69.51
2019-01-04T02:39:16.014Z,69.82
2019-01-04T02:41:46.686Z,70.27
2019-01-04T02:44:18.415Z,70.65
2019-01-04T02:46:49.086Z,71.73
2019-01-04T02:49:19.609Z,71.66
2019-01-04T02:51:49.954Z,71.96
2019-01-04T02:54:20.588Z,72.58
2019-01-04T02:56:50.882Z,72.85
2019-01-04T02:59:21.684Z,72.57
2019-01-04T03:01:52.456Z,73.32
2019-01-04T03:04:23.045Z,73.75
2019-01-04T03:06:53.437Z,73.97
2019-01-04T03:09:24.275Z,74.62
2019-01-04T03:11:54.709Z,74.59
2019-01-04T03:14:25.031Z,74.91
2019-01-04T03:16:55.628Z,74.80
2019-01-04T03:19:26.027Z,75.10
2019-01-04T03:21:56.308Z,74.81
2019-01-04T03:24:26.861Z,74.30
2019-01-04T03:26:57.654Z,74.62
2019-01-04T03:29:28.351Z,74.85
2019-01-04T03:31:58.737Z,74.68
2019-01-04T03:34:29.147Z,74.30
2019-01-04T03:36:59.727Z,74.33
2019-01-04T03:39:30.036Z,74.85
2019-01-04T03:42:00.973Z,74.71
2019-01-04T03:44:31.347Z,74.47
2019-01-04T03:47:01.706Z,74.08
2019-01-04T03:49:32.311Z,74.23
2019-01-04T03:52:03.049Z,74.47
2019-01-04T03:54:33.801Z,73.71
2019-01-04T03:57:04.087Z,74.17
2019-01-04T03:59:34.907Z,74.27
2019-01-04T04:02:05.613Z,74.29
2019-01-04T04:04:36.168Z,73.95
2019-01-04T04:07:06.442Z,73.94
2019-01-04T04:09:36.997Z,73.35
2019-01-04T04:12:07.360Z,73.49
2019-01-04T04:14:37.993Z,73.81
2019-01-04T04:17:08.655Z,74.27
2019-01-04T04:19:39.498Z,74.48
2019-01-04T04:22:09.848Z,73.80
2019-01-04T04:24:40.424Z,74.49
2019-01-04T04:27:10.752Z,73.97
2019-01-04T04:29:41.722Z,73.44
2019-01-04T04:32:12.210Z,73.14
2019-01-04T04:34:42.758Z,74.20
2019-01-04T04:37:13.411Z,74.71
2019-01-04T04:39:44.311Z,74.86
2019-01-04T04:42:14.600Z,73.60
2019-01-04T04:44:45.492Z,72.63
2019-01-04T04:47:16.141Z,73.94
2019-01-04T04:49:46.597Z,73.87
2019-01-04T04:52:16.933Z,73.79
2019-01-04T04:54:47.373Z,73.57
2019-01-04T04:57:18.055Z,74.69
2019-01-04T04:59:48.876Z,73.84
2019-01-04T05:02:19.149Z,73.88
2019-01-04T05:04:49.931Z,74.47
2019-01-04T05:07:20.599Z,74.13
2019-01-04T05:09:50.919Z,74.46
2019-01-04T05:12:21.440Z,74.88
2019-01-04T05:14:52.016Z,74.06
2019-01-04T05:17:22.294Z,73.92
2019-01-04T05:19:52.600Z,74.56
2019-01-04T05:22:23.219Z,75.13
2019-01-04T05:24:53.524Z,74.48
2019-01-04T05:27:24.186Z,75.37
2019-01-04T05:29:54.938Z,74.68
2019-01-04T05:32:25.734Z,74.00
2019-01-04T05:34:56.034Z,73.39
2019-01-04T05:37:26.942Z,72.96
2019-01-04T05:39:57.565Z,73.35
2019-01-04T05:42:27.962Z,73.10
2019-01-04T05:44:58.657Z,73.46
2019-01-04T05:47:29.142Z,73.45
2019-01-04T05:49:59.508Z,73.17
2019-01-04T05:52:29.983Z,75.52
2019-01-04T05:55:00.642Z,76.06
2019-01-04T05:57:30.927Z,76.40
2019-01-04T06:00:02.059Z,76.59
2019-01-04T06:02:32.545Z,77.12
2019-01-04T06:05:03.096Z,77.49
2019-01-04T06:07:34.323Z,78.22
2019-01-04T06:10:04.822Z,76.62
2019-01-04T06:12:35.402Z,77.71
2019-01-04T06:15:06.425Z,77.69
2019-01-04T06:17:37.034Z,76.43
2019-01-04T06:20:07.414Z,76.83
2019-01-04T06:22:38.204Z,76.90
2019-01-04T06:25:09.495Z,76.34
2019-01-04T06:27:40.068Z,76.79
2019-01-04T06:30:10.833Z,75.75
2019-01-04T06:32:41.741Z,74.97
2019-01-04T06:35:12.432Z,74.20
2019-01-04T06:37:42.904Z,74.90
2019-01-04T06:40:13.493Z,75.00
2019-01-04T06:42:44.453Z,75.13
2019-01-04T06:45:14.744Z,74.88
2019-01-04T06:47:46.923Z,74.79
2019-01-04T06:50:17.311Z,75.28
2019-01-04T06:52:48.027Z,74.72
2019-01-04T06:55:49.351Z,74.22
2019-01-04T06:58:20.057Z,73.83
2019-01-04T07:00:50.544Z,71.66
2019-01-04T07:03:21.445Z,71.25
2019-01-04T07:05:51.818Z,72.36
2019-01-04T07:08:22.455Z,72.38
2019-01-04T07:10:53.309Z,73.39
2019-01-04T07:13:23.870Z,72.86
2019-01-04T07:15:54.146Z,72.45
2019-01-04T07:18:24.891Z,71.56
2019-01-04T07:20:55.375Z,71.89
2019-01-04T07:23:25.925Z,72.62
2019-01-04T07:25:56.582Z,73.17
2019-01-04T07:28:27.283Z,70.93
2019-01-04T07:30:57.586Z,72.02
2019-01-04T07:33:28.505Z,72.24
2019-01-04T07:35:58.911Z,71.56
2019-01-04T07:38:29.754Z,71.02
2019-01-04T07:41:01.528Z,70.40
2019-01-04T07:43:32.307Z,70.54
2019-01-04T07:46:02.926Z,71.32
2019-01-04T07:48:33.433Z,70.52
2019-01-04T07:51:03.792Z,70.68
2019-01-04T07:53:34.376Z,70.91
2019-01-04T07:56:05.101Z,71.11
2019-01-04T07:58:35.723Z,70.09
2019-01-04T08:01:06.065Z,70.17
2019-01-04T08:03:36.926Z,70.77
2019-01-04T08:06:08.181Z,69.18
2019-01-04T08:08:38.807Z,68.55
2019-01-04T08:11:09.217Z,68.03
2019-01-04T08:13:39.841Z,68.84
2019-01-04T08:16:10.257Z,68.11
2019-01-04T08:18:40.657Z,68.89
2019-01-04T08:21:11.027Z,68.48
2019-01-04T08:23:41.930Z,68.52
2019-01-04T08:26:12.209Z,67.83
2019-01-04T08:28:42.600Z,68.66
2019-01-04T08:31:13.735Z,69.25
2019-01-04T08:33:44.975Z,69.33
2019-01-04T08:36:15.272Z,70.14
2019-01-04T08:38:46.269Z,69.98
2019-01-04T08:41:16.677Z,68.94
2019-01-04T08:43:47.321Z,69.28
2019-01-04T08:46:18.049Z,68.83
2019-01-04T08:48:48.325Z,68.92
2019-01-04T08:51:18.999Z,68.33
2019-01-04T08:54:17.910Z,67.19
2019-01-04T08:56:48.232Z,65.70
2019-01-04T08:59:18.881Z,66.62
2019-01-04T09:01:49.762Z,66.52
2019-01-04T09:04:20.041Z,67.03
2019-01-04T09:06:50.553Z,65.60
2019-01-04T09:09:21.098Z,66.20
2019-01-04T09:11:51.428Z,63.93
2019-01-04T09:14:21.950Z,62.92
2019-01-04T09:16:52.350Z,62.09
2019-01-04T09:19:23.250Z,61.73
2019-01-04T09:21:53.792Z,61.71
2019-01-04T09:24:24.138Z,61.11
2019-01-04T09:26:54.816Z,60.72
2019-01-04T09:29:25.417Z,61.27
2019-01-04T09:31:56.025Z,60.76
2019-01-04T09:34:26.780Z,59.49
2019-01-04T09:36:57.801Z,58.86
2019-01-04T09:39:29.891Z,59.79
2019-01-04T09:42:20.492Z,59.35
2019-01-04T09:44:51.233Z,60.40
2019-01-04T09:47:21.846Z,63.01
2019-01-04T09:49:52.179Z,64.27
2019-01-04T09:52:23.159Z,62.12
2019-01-04T09:54:53.546Z,61.64
2019-01-04T09:57:23.977Z,62.05
2019-01-04T09:59:54.630Z,59.97
2019-01-04T10:02:25.321Z,60.57
2019-01-04T10:04:55.640Z,60.52
2019-01-04T10:07:26.601Z,59.49
2019-01-04T10:09:56.947Z,58.59
2019-01-04T10:12:28.254Z,58.49
2019-01-04T10:14:59.546Z,59.65
2019-01-04T10:17:30.255Z,58.86
2019-01-04T10:20:00.798Z,57.99
2019-01-04T10:22:31.702Z,59.89
2019-01-04T10:25:02.007Z,59.27
2019-01-04T10:27:33.096Z,59.79
2019-01-04T10:30:04.044Z,60.63
2019-01-04T10:32:34.641Z,60.48
2019-01-04T10:35:10.511Z,60.51
2019-01-04T10:37:40.181Z,60.21
2019-01-04T10:40:11.142Z,57.83
2019-01-04T10:42:42.076Z,59.08
2019-01-04T10:45:12.861Z,59.08
2019-01-04T10:47:43.190Z,58.47
2019-01-04T10:50:13.726Z,56.41
2019-01-04T10:52:44.187Z,55.79
2019-01-04T10:55:14.682Z,57.72
2019-01-04T10:57:45.751Z,56.45
2019-01-04T11:00:16.196Z,56.09
2019-01-04T11:02:46.727Z,55.30
2019-01-04T11:05:17.403Z,52.40
2019-01-04T11:07:47.730Z,51.22
2019-01-04T11:10:18.005Z,51.94
2019-01-04T11:12:48.566Z,52.82
2019-01-04T11:15:18.836Z,53.07
2019-01-04T11:17:49.524Z,49.33
2019-01-04T11:20:51.417Z,49.65
2019-01-04T11:24:18.015Z,49.83
2019-01-04T11:27:08.826Z,51.79
2019-01-04T11:29:57.582Z,53.75
2019-01-04T11:33:10.882Z,55.82
2019-01-04T11:36:16.347Z,57.87
2019-01-04T11:39:13.078Z,58.70
2019-01-04T11:42:26.754Z,60.72
2019-01-04T11:45:23.036Z,62.18
2019-01-04T11:48:32.215Z,63.27
2019-01-04T11:51:12.194Z,63.84
2019-01-04T11:53:43.075Z,62.43
2019-01-04T11:56:13.530Z,64.18
2019-01-04T11:58:44.115Z,63.98
2019-01-04T12:01:14.400Z,64.78
2019-01-04T12:04:02.117Z,65.08
2019-01-04T12:06:32.701Z,65.25
2019-01-04T12:09:03.257Z,64.84
2019-01-04T12:11:33.534Z,65.68
2019-01-04T12:14:04.646Z,65.59
2019-01-04T12:16:35.226Z,66.53
2019-01-04T12:19:05.841Z,67.38
2019-01-04T12:21:36.503Z,67.92
2019-01-04T12:24:08.653Z,68.07
2019-01-04T12:26:38.942Z,68.28
2019-01-04T12:29:09.698Z,68.26
2019-01-04T12:31:40.058Z,67.31
2019-01-04T12:34:16.498Z,67.47
2019-01-04T12:36:43.213Z,67.26
2019-01-04T12:39:13.491Z,67.71
2019-01-04T12:41:44.111Z,69.31
2019-01-04T12:44:15.000Z,69.06
2019-01-04T12:46:45.310Z,68.82
2019-01-04T12:49:15.825Z,69.12
2019-01-04T12:51:46.567Z,69.64
2019-01-04T12:54:16.940Z,69.25
2019-01-04T12:56:47.251Z,69.65
2019-01-04T12:59:18.173Z,70.72
2019-01-04T13:01:48.460Z,70.73
2019-01-04T13:04:19.174Z,70.98
2019-01-04T13:06:49.467Z,70.07
2019-01-04T13:09:19.843Z,70.35
2019-01-04T13:11:50.476Z,70.27
2019-01-04T13:14:21.259Z,70.48
2019-01-04T13:16:51.972Z,70.36
2019-01-04T13:19:25.789Z,70.03
2019-01-04T13:21:54.898Z,70.25
2019-01-04T13:24:25.178Z,70.71
2019-01-04T13:26:55.899Z,70.75
2019-01-04T13:29:26.689Z,70.88
2019-01-04T13:31:56.968Z,70.57
2019-01-04T13:34:27.683Z,71.01
2019-01-04T13:36:58.028Z,71.07
2019-01-04T13:39:28.646Z,70.95
2019-01-04T13:41:59.172Z,70.07
2019-01-04T13:44:29.887Z,69.21
2019-01-04T13:47:00.456Z,69.64
2019-01-04T13:49:30.915Z,69.65
2019-01-04T13:52:01.477Z,69.69
2019-01-04T13:54:32.162Z,69.84
2019-01-04T13:57:02.931Z,70.14
2019-01-04T13:59:33.335Z,69.87
2019-01-04T14:02:04.096Z,70.07
2019-01-04T14:04:34.455Z,70.81
2019-01-04T14:07:04.819Z,71.17
2019-01-04T14:09:35.150Z,70.39
2019-01-04T14:12:05.769Z,70.13
2019-01-04T14:14:36.435Z,71.05
2019-01-04T14:17:06.888Z,70.74
2019-01-04T14:19:37.551Z,70.37
2019-01-04T14:22:08.148Z,71.05
2019-01-04T14:24:38.442Z,70.12
2019-01-04T14:27:09.051Z,70.96
2019-01-04T14:29:39.694Z,70.59
2019-01-04T14:32:10.095Z,69.88
2019-01-04T14:34:40.831Z,70.23
2019-01-04T14:37:11.238Z,70.81
2019-01-04T14:39:41.583Z,70.90
2019-01-04T14:42:11.873Z,71.49
2019-01-04T14:44:42.632Z,71.58
2019-01-04T14:47:13.039Z,71.26
2019-01-04T14:49:43.646Z,71.00
2019-01-04T14:52:14.514Z,71.01
2019-01-04T14:54:45.274Z,71.02
2019-01-04T14:57:15.882Z,71.02
2019-01-04T14:59:46.398Z,70.85
2019-01-04T15:02:17.127Z,70.34
2019-01-04T15:04:47.505Z,70.57
2019-01-04T15:07:18.157Z,70.57
2019-01-04T15:09:48.496Z,69.44
2019-01-04T15:12:18.798Z,69.38
2019-01-04T15:14:49.613Z,69.89
2019-01-04T15:17:20.131Z,69.74
2019-01-04T15:19:50.431Z,70.25
2019-01-04T15:22:21.328Z,70.31
2019-01-04T15:24:52.038Z,68.65
2019-01-04T15:27:22.349Z,69.18
2019-01-04T15:29:53.072Z,69.27
2019-01-04T15:32:23.838Z,68.76
2019-01-04T15:34:54.112Z,69.05
2019-01-04T15:37:24.431Z,69.07
2019-01-04T15:39:55.281Z,69.86
2019-01-04T15:42:25.567Z,70.14
2019-01-04T15:44:56.195Z,70.43
2019-01-04T15:47:26.601Z,70.90
2019-01-04T15:49:57.030Z,71.31
2019-01-04T15:52:27.932Z,70.85
2019-01-04T15:54:58.294Z,70.97
2019-01-04T15:57:28.606Z,70.99
2019-01-04T15:59:59.509Z,70.76
2019-01-04T16:02:29.809Z,70.56
2019-01-04T16:05:00.136Z,71.15
2019-01-04T16:07:30.902Z,71.38
2019-01-04T16:10:01.514Z,71.31
2019-01-04T16:12:31.896Z,71.01
2019-01-04T16:15:03.038Z,71.49
2019-01-04T16:17:33.351Z,71.65
2019-01-04T16:20:04.212Z,72.27
2019-01-04T16:22:34.899Z,71.49
2019-01-04T16:25:05.733Z,71.62
2019-01-04T16:27:36.412Z,72.38
2019-01-04T16:30:08.934Z,71.44
2019-01-04T16:32:39.247Z,70.70
2019-01-04T16:35:09.661Z,70.19
2019-01-04T16:37:40.370Z,70.21
2019-01-04T16:40:10.847Z,71.02
2019-01-04T16:42:41.455Z,72.00
2019-01-04T16:45:12.530Z,72.23
2019-01-04T16:47:42.868Z,73.63
2019-01-04T16:50:13.305Z,74.21
2019-01-04T16:52:43.667Z,74.66
2019-01-04T16:55:14.314Z,75.35
2019-01-04T16:57:44.912Z,75.11
2019-01-04T17:00:15.415Z,75.75
2019-01-04T17:02:46.082Z,75.28
2019-01-04T17:05:16.559Z,74.41
2019-01-04T17:07:47.200Z,74.27
2019-01-04T17:10:17.615Z,74.38
2019-01-04T17:12:49.661Z,74.71
2019-01-04T17:15:20.345Z,74.07
2019-01-04T17:17:50.659Z,74.02
2019-01-04T17:20:21.175Z,74.12
2019-01-04T17:22:51.891Z,74.02
2019-01-04T17:25:22.491Z,73.17
2019-01-04T17:27:52.790Z,73.23
2019-01-04T17:30:23.720Z,73.22
2019-01-04T17:32:54.270Z,73.40
2019-01-04T17:35:24.554Z,73.18
2019-01-04T17:37:55.240Z,73.51
2019-01-04T17:40:25.773Z,73.74
2019-01-04T17:42:56.062Z,73.71
2019-01-04T17:45:27.384Z,73.97
2019-01-04T17:47:57.801Z,73.53
2019-01-04T17:50:28.258Z,73.21
2019-01-04T17:52:58.978Z,73.56
2019-01-04T17:55:29.354Z,73.68
2019-01-04T17:57:59.648Z,73.76
2019-01-04T18:00:30.459Z,73.72
2019-01-04T18:03:01.100Z,73.85
2019-01-04T18:05:32.351Z,73.92
2019-01-04T18:08:04.001Z,74.06
2019-01-04T18:10:34.384Z,73.89
2019-01-04T18:13:04.804Z,73.80
2019-01-04T18:15:35.382Z,72.82
2019-01-04T18:18:05.762Z,72.69
2019-01-04T18:20:36.186Z,72.71
2019-01-04T18:23:06.938Z,71.71
2019-01-04T18:25:37.610Z,71.23
2019-01-04T18:28:07.952Z,71.20
2019-01-04T18:30:38.407Z,71.44
2019-01-04T18:33:08.811Z,71.43
2019-01-04T18:35:41.232Z,71.53
2019-01-04T18:38:12.574Z,71.69
2019-01-04T18:40:43.258Z,71.58
2019-01-04T18:43:13.570Z,71.17
2019-01-04T18:45:43.912Z,70.01
2019-01-04T18:48:14.488Z,70.02
2019-01-04T18:50:44.880Z,69.46
2019-01-04T18:53:15.180Z,70.25
2019-01-04T18:55:45.915Z,69.41
2019-01-04T18:58:16.257Z,68.84
2019-01-04T19:00:46.648Z,68.67
2019-01-04T19:03:16.988Z,69.01
2019-01-04T19:05:47.288Z,68.76
2019-01-04T19:08:18.002Z,66.17
2019-01-04T19:10:48.538Z,68.83
2019-01-04T19:13:18.943Z,69.07
2019-01-04T19:15:49.742Z,69.07
2019-01-04T19:18:20.368Z,67.23
2019-01-04T19:20:50.768Z,65.14
2019-01-04T19:23:21.803Z,65.30
2019-01-04T19:25:52.458Z,65.97
2019-01-04T19:28:23.149Z,66.80
2019-01-04T19:30:53.675Z,66.68
2019-01-04T19:33:24.023Z,64.71
2019-01-04T19:35:54.752Z,64.31
2019-01-04T19:38:25.496Z,63.56
2019-01-04T19:40:55.875Z,62.72
2019-01-04T19:43:26.839Z,62.33
2019-01-04T19:45:57.604Z,62.97
2019-01-04T19:48:28.972Z,63.87
2019-01-04T19:50:59.517Z,65.00
2019-01-04T19:53:31.154Z,66.62
2019-01-04T19:56:01.928Z,68.70
2019-01-04T19:58:32.293Z,69.57
2019-01-04T20:01:09.838Z,69.52
2019-01-04T20:03:40.234Z,69.78
2019-01-04T20:07:14.841Z,70.54
2019-01-04T20:10:52.178Z,71.63
2019-01-04T20:14:49.071Z,72.69
2019-01-04T20:17:41.137Z,72.86
2019-01-04T20:20:33.368Z,72.63
2019-01-04T20:23:31.704Z,72.72
2019-01-04T20:26:20.025Z,72.66
2019-01-04T20:29:15.091Z,72.61
2019-01-04T20:32:02.908Z,72.56
2019-01-04T20:35:02.710Z,72.72
2019-01-04T20:38:01.825Z,73.00
2019-01-04T20:40:50.212Z,72.57
2019-01-04T20:43:42.370Z,71.93
2019-01-04T20:46:30.873Z,72.36
2019-01-04T20:49:36.200Z,71.56
2019-01-04T20:52:18.372Z,72.02
2019-01-04T20:55:05.824Z,71.48
2019-01-04T20:57:55.113Z,71.53
2019-01-04T21:00:53.755Z,71.55
2019-01-04T21:03:47.433Z,71.31
2019-01-04T21:06:35.779Z,73.39
2019-01-04T21:09:24.128Z,73.08
2019-01-04T21:12:22.452Z,73.04
2019-01-04T21:15:11.066Z,73.32
2019-01-04T21:18:00.289Z,72.44
2019-01-04T21:21:02.244Z,72.54
2019-01-04T21:24:00.491Z,72.19
2019-01-04T21:26:48.630Z,73.51
2019-01-04T21:29:43.178Z,72.56
2019-01-04T21:32:35.529Z,72.90
2019-01-04T21:35:25.079Z,72.64
2019-01-04T21:38:16.291Z,72.85
2019-01-04T21:41:04.540Z,72.69
2019-01-04T21:43:53.842Z,72.81
2019-01-04T21:46:41.983Z,72.73
2019-01-04T21:49:30.502Z,72.72
2019-01-04T21:52:35.083Z,72.53
2019-01-04T21:55:27.554Z,73.14
2019-01-04T21:58:13.387Z,72.95
2019-01-04T22:01:01.763Z,73.43
2019-01-04T22:03:49.830Z,72.08
2019-01-04T22:06:45.660Z,70.82
2019-01-04T22:09:33.748Z,71.47
2019-01-04T22:12:29.200Z,72.63
2019-01-04T22:15:36.492Z,71.82
2019-01-04T22:18:25.576Z,71.05
2019-01-04T22:21:15.152Z,71.14
2019-01-04T22:24:03.823Z,71.50
2019-01-04T22:27:02.146Z,71.70
2019-01-04T22:29:54.718Z,71.08
2019-01-04T22:32:45.008Z,69.76
2019-01-04T22:35:40.850Z,69.80
2019-01-04T22:38:30.062Z,69.65
2019-01-04T22:41:25.737Z,70.32
2019-01-04T22:44:33.914Z,70.88
2019-01-04T22:47:38.992Z,69.86
2019-01-04T22:50:27.033Z,70.07
2019-01-04T22:53:23.641Z,69.30
2019-01-04T22:56:13.327Z,70.01
2019-01-04T22:59:01.473Z,69.36
2019-01-04T23:01:57.058Z,70.95
2019-01-04T23:04:45.671Z,70.46
2019-01-04T23:07:34.895Z,70.82
2019-01-04T23:10:43.063Z,70.12
2019-01-04T23:13:23.084Z,70.09
2019-01-04T23:16:11.323Z,69.77
2019-01-04T23:19:07.095Z,69.69
2019-01-04T23:22:29.142Z,69.28
2019-01-04T23:25:24.405Z,69.39
2019-01-04T23:28:13.702Z,70.26
2019-01-04T23:31:03.262Z,70.18
2019-01-04T23:34:08.385Z,69.12
2019-01-04T23:37:02.958Z,69.32
2019-01-04T23:39:51.617Z,69.30
2019-01-04T23:42:56.378Z,69.44
2019-01-04T23:45:44.732Z,68.97
2019-01-04T23:48:52.548Z,68.91
2019-01-04T23:51:42.060Z,68.35
2019-01-04T23:54:28.373Z,67.96
2019-01-04T23:57:23.709Z,67.50
